createdAt,value
2019-03-27T00:00:07.986Z,25.15
2019-03-27T00:01:07.931Z,25.04
2019-03-27T00:02:07.924Z,25.24
2019-03-27T00:03:07.919Z,25.04
2019-03-27T00:04:07.899Z,25.26
2019-03-27T00:05:07.904Z,25.05
2019-03-27T00:06:07.951Z,24.85
2019-03-27T00:07:07.884Z,24.45
2019-03-27T00:08:07.884Z,24.65
2019-03-27T00:09:07.890Z,24.15
2019-03-27T00:10:07.830Z,24.05
2019-03-27T00:11:07.848Z,24.16
2019-03-27T00:12:07.897Z,25.05
2019-03-27T00:13:07.796Z,24.26
2019-03-27T00:14:07.787Z,24.26
2019-03-27T00:15:13.491Z,24.66
2019-03-27T00:16:08.770Z,23.86
2019-03-27T00:17:07.764Z,24.66
2019-03-27T00:18:07.800Z,24.16
2019-03-27T00:19:07.743Z,24.07
2019-03-27T00:20:07.743Z,25.16
2019-03-27T00:21:07.729Z,25.16
2019-03-27T00:22:07.727Z,25.08
2019-03-27T00:23:07.690Z,25.28
2019-03-27T00:24:07.712Z,25.18
2019-03-27T00:25:07.668Z,25.08
2019-03-27T00:26:07.664Z,25.08
2019-03-27T00:27:07.641Z,25.08
2019-03-27T00:28:07.641Z,24.98
2019-03-27T00:29:07.627Z,25.28
2019-03-27T00:30:07.654Z,24.88
2019-03-27T00:31:07.602Z,24.98
2019-03-27T00:32:07.633Z,24.78
2019-03-27T00:33:07.587Z,24.88
2019-03-27T00:34:07.585Z,24.89
2019-03-27T00:35:07.591Z,24.59
2019-03-27T00:36:07.589Z,25.09
2019-03-27T00:37:07.529Z,24.69
2019-03-27T00:38:07.526Z,24.69
2019-03-27T00:39:07.519Z,24.99
2019-03-27T00:40:07.536Z,25.49
2019-03-27T00:41:07.516Z,25.49
2019-03-27T00:42:07.552Z,25.00
2019-03-27T00:43:07.470Z,25.31
2019-03-27T00:44:07.465Z,25.51
2019-03-27T00:45:07.446Z,25.40
2019-03-27T00:46:07.471Z,24.80
2019-03-27T00:47:07.457Z,25.20
2019-03-27T00:48:07.462Z,25.20
2019-03-27T00:49:07.416Z,25.20
2019-03-27T00:50:07.402Z,25.20
2019-03-27T00:51:07.408Z,25.00
2019-03-27T00:52:07.375Z,25.20
2019-03-27T00:53:07.362Z,24.90
2019-03-27T00:54:07.391Z,24.71
2019-03-27T00:55:07.327Z,25.01
2019-03-27T00:56:07.324Z,24.81
2019-03-27T00:57:07.317Z,24.71
2019-03-27T00:58:07.304Z,25.62
2019-03-27T00:59:07.286Z,25.72
2019-03-27T01:00:07.306Z,25.12
2019-03-27T01:01:07.277Z,25.62
2019-03-27T01:02:07.250Z,25.21
2019-03-27T01:03:07.252Z,24.91
2019-03-27T01:04:07.234Z,24.91
2019-03-27T01:05:07.226Z,25.01
2019-03-27T01:06:07.246Z,25.12
2019-03-27T01:07:07.200Z,25.72
2019-03-27T01:08:07.183Z,26.12
2019-03-27T01:09:07.266Z,25.72
2019-03-27T01:10:07.178Z,25.83
2019-03-27T01:11:07.213Z,25.83
2019-03-27T01:12:07.164Z,25.73
2019-03-27T01:13:07.132Z,25.83
2019-03-27T01:14:07.114Z,25.73
2019-03-27T01:15:07.133Z,26.13
2019-03-27T01:16:07.097Z,26.33
2019-03-27T01:17:07.096Z,25.93
2019-03-27T01:18:07.120Z,26.33
2019-03-27T01:19:07.071Z,26.33
2019-03-27T01:20:07.060Z,25.93
2019-03-27T01:21:07.049Z,26.23
2019-03-27T01:22:07.048Z,26.13
2019-03-27T01:23:07.036Z,26.14
2019-03-27T01:24:07.041Z,26.03
2019-03-27T01:25:06.992Z,26.04
2019-03-27T01:26:06.995Z,26.14
2019-03-27T01:27:06.981Z,26.04
2019-03-27T01:28:06.958Z,26.25
2019-03-27T01:29:06.955Z,26.14
2019-03-27T01:30:06.967Z,25.64
2019-03-27T01:31:06.954Z,25.74
2019-03-27T01:32:06.920Z,25.74
2019-03-27T01:33:06.901Z,25.84
2019-03-27T01:34:06.907Z,25.85
2019-03-27T01:35:06.900Z,25.85
2019-03-27T01:36:06.905Z,25.74
2019-03-27T01:37:06.910Z,25.85
2019-03-27T01:38:06.853Z,25.56
2019-03-27T01:39:06.835Z,25.65
2019-03-27T01:40:06.858Z,25.85
2019-03-27T01:41:06.819Z,25.65
2019-03-27T01:42:06.845Z,25.65
2019-03-27T01:43:06.821Z,25.45
2019-03-27T01:44:06.783Z,25.95
2019-03-27T01:45:06.766Z,25.95
2019-03-27T01:46:06.765Z,25.85
2019-03-27T01:47:06.778Z,25.56
2019-03-27T01:48:06.768Z,25.96
2019-03-27T01:49:06.732Z,25.37
2019-03-27T01:50:06.715Z,25.46
2019-03-27T01:51:06.704Z,25.57
2019-03-27T01:52:08.134Z,25.46
2019-03-27T01:53:06.687Z,25.46
2019-03-27T01:54:06.736Z,25.67
2019-03-27T01:55:06.665Z,25.67
2019-03-27T01:56:06.647Z,26.07
2019-03-27T01:57:06.633Z,25.96
2019-03-27T01:58:06.623Z,25.87
2019-03-27T01:59:06.625Z,26.47
2019-03-27T02:00:06.636Z,26.59
2019-03-27T02:01:06.590Z,26.48
2019-03-27T02:02:06.587Z,25.68
2019-03-27T02:03:06.571Z,26.39
2019-03-27T02:04:06.557Z,26.68
2019-03-27T02:05:06.554Z,25.88
2019-03-27T02:06:06.568Z,26.79
2019-03-27T02:07:06.528Z,26.89
2019-03-27T02:08:06.509Z,26.79
2019-03-27T02:09:06.512Z,27.09
2019-03-27T02:10:06.499Z,26.79
2019-03-27T02:11:06.486Z,26.99
2019-03-27T02:12:06.523Z,26.68
2019-03-27T02:13:06.454Z,26.68
2019-03-27T02:14:06.454Z,26.89
2019-03-27T02:15:06.432Z,26.59
2019-03-27T02:16:07.468Z,26.59
2019-03-27T02:17:06.421Z,26.39
2019-03-27T02:18:06.443Z,26.60
2019-03-27T02:19:06.390Z,26.60
2019-03-27T02:20:06.382Z,26.59
2019-03-27T02:21:06.373Z,26.50
2019-03-27T02:22:06.360Z,26.70
2019-03-27T02:23:06.342Z,26.70
2019-03-27T02:24:06.367Z,26.70
2019-03-27T02:25:06.328Z,26.09
2019-03-27T02:26:06.312Z,26.29
2019-03-27T02:27:06.299Z,26.29
2019-03-27T02:28:06.341Z,26.29
2019-03-27T02:29:06.294Z,26.29
2019-03-27T02:30:06.299Z,26.29
2019-03-27T02:31:06.270Z,26.20
2019-03-27T02:32:06.253Z,26.40
2019-03-27T02:33:06.244Z,27.00
2019-03-27T02:34:06.225Z,26.40
2019-03-27T02:35:06.237Z,26.90
2019-03-27T02:36:06.315Z,26.41
2019-03-27T02:37:06.241Z,26.90
2019-03-27T02:38:06.239Z,27.01
2019-03-27T02:39:06.172Z,26.91
2019-03-27T02:40:06.252Z,26.91
2019-03-27T02:41:06.179Z,26.71
2019-03-27T02:42:06.177Z,27.01
2019-03-27T02:43:06.149Z,27.01
2019-03-27T02:44:06.173Z,26.91
2019-03-27T02:45:06.093Z,26.41
2019-03-27T02:46:23.338Z,26.41
2019-03-27T02:47:07.120Z,27.01
2019-03-27T02:48:06.073Z,27.01
2019-03-27T02:49:06.069Z,26.41
2019-03-27T02:50:06.047Z,26.41
2019-03-27T02:51:06.036Z,27.01
2019-03-27T02:52:06.038Z,26.81
2019-03-27T02:53:06.049Z,26.61
2019-03-27T02:54:06.015Z,26.61
2019-03-27T02:55:06.030Z,26.71
2019-03-27T02:56:06.069Z,26.92
2019-03-27T02:57:05.980Z,26.72
2019-03-27T02:58:05.963Z,26.61
2019-03-27T02:59:05.977Z,26.51
2019-03-27T03:00:05.923Z,26.52
2019-03-27T03:01:05.913Z,26.62
2019-03-27T03:02:05.918Z,26.71
2019-03-27T03:03:05.917Z,26.52
2019-03-27T03:04:05.891Z,26.52
2019-03-27T03:05:05.918Z,26.62
2019-03-27T03:06:05.943Z,26.62
2019-03-27T03:07:05.861Z,26.52
2019-03-27T03:08:05.874Z,26.62
2019-03-27T03:09:05.849Z,26.62
2019-03-27T03:10:05.820Z,26.52
2019-03-27T03:11:05.833Z,26.62
2019-03-27T03:12:05.797Z,27.43
2019-03-27T03:13:05.815Z,26.82
2019-03-27T03:14:05.771Z,27.43
2019-03-27T03:15:05.761Z,27.33
2019-03-27T03:16:05.752Z,27.34
2019-03-27T03:17:05.761Z,27.34
2019-03-27T03:18:05.749Z,26.92
2019-03-27T03:19:05.716Z,26.84
2019-03-27T03:20:05.707Z,27.43
2019-03-27T03:21:05.695Z,27.44
2019-03-27T03:22:05.681Z,26.84
2019-03-27T03:23:05.778Z,26.82
2019-03-27T03:24:05.673Z,27.04
2019-03-27T03:25:05.672Z,27.44
2019-03-27T03:26:05.656Z,27.64
2019-03-27T03:27:05.653Z,27.04
2019-03-27T03:28:05.629Z,27.64
2019-03-27T03:29:05.660Z,27.75
2019-03-27T03:30:05.617Z,27.64
2019-03-27T03:31:05.585Z,27.34
2019-03-27T03:32:05.563Z,27.75
2019-03-27T03:33:05.579Z,27.75
2019-03-27T03:34:05.553Z,27.55
2019-03-27T03:35:05.588Z,27.34
2019-03-27T03:36:05.606Z,27.84
2019-03-27T03:37:05.508Z,27.55
2019-03-27T03:38:05.513Z,27.34
2019-03-27T03:39:05.509Z,27.55
2019-03-27T03:40:05.472Z,27.55
2019-03-27T03:41:05.529Z,27.34
2019-03-27T03:42:05.486Z,27.44
2019-03-27T03:43:05.465Z,27.44
2019-03-27T03:44:05.439Z,27.64
2019-03-27T03:45:05.429Z,27.34
2019-03-27T03:46:05.422Z,27.84
2019-03-27T03:47:05.440Z,27.64
2019-03-27T03:48:05.434Z,27.34
2019-03-27T03:49:05.459Z,27.34
2019-03-27T03:50:05.378Z,27.44
2019-03-27T03:51:05.349Z,27.36
2019-03-27T03:52:05.351Z,27.36
2019-03-27T03:53:05.360Z,27.36
2019-03-27T03:54:05.323Z,26.95
2019-03-27T03:55:05.311Z,26.95
2019-03-27T03:56:05.337Z,27.05
2019-03-27T03:57:05.281Z,27.25
2019-03-27T03:58:05.326Z,26.95
2019-03-27T03:59:05.295Z,27.36
2019-03-27T04:00:05.268Z,27.05
2019-03-27T04:01:05.275Z,27.05
2019-03-27T04:02:05.290Z,27.36
2019-03-27T04:03:05.217Z,27.15
2019-03-27T04:04:05.205Z,27.25
2019-03-27T04:05:05.242Z,26.95
2019-03-27T04:06:05.194Z,27.15
2019-03-27T04:07:05.174Z,27.05
2019-03-27T04:08:05.158Z,27.15
2019-03-27T04:09:05.165Z,27.25
2019-03-27T04:10:05.153Z,27.25
2019-03-27T04:11:05.165Z,27.37
2019-03-27T04:12:05.127Z,27.25
2019-03-27T04:13:05.250Z,27.25
2019-03-27T04:14:05.097Z,27.45
2019-03-27T04:15:05.181Z,27.26
2019-03-27T04:16:05.079Z,27.17
2019-03-27T04:17:17.187Z,27.26
2019-03-27T04:18:06.044Z,27.57
2019-03-27T04:19:05.061Z,27.57
2019-03-27T04:20:05.046Z,27.37
2019-03-27T04:21:05.030Z,27.26
2019-03-27T04:22:05.018Z,27.57
2019-03-27T04:23:05.029Z,27.36
2019-03-27T04:24:04.993Z,27.17
2019-03-27T04:25:04.987Z,27.26
2019-03-27T04:26:10.517Z,27.37
2019-03-27T04:27:05.955Z,27.26
2019-03-27T04:28:05.004Z,26.97
2019-03-27T04:29:04.963Z,27.06
2019-03-27T04:30:04.926Z,27.87
2019-03-27T04:31:04.903Z,27.06
2019-03-27T04:32:04.900Z,27.06
2019-03-27T04:33:04.883Z,27.06
2019-03-27T04:34:04.878Z,27.17
2019-03-27T04:35:04.886Z,27.89
2019-03-27T04:36:04.849Z,27.37
2019-03-27T04:37:04.857Z,27.77
2019-03-27T04:38:04.840Z,28.09
2019-03-27T04:39:04.822Z,28.19
2019-03-27T04:40:04.819Z,28.08
2019-03-27T04:41:04.879Z,27.97
2019-03-27T04:42:04.785Z,28.28
2019-03-27T04:43:04.786Z,28.48
2019-03-27T04:44:04.755Z,28.49
2019-03-27T04:45:04.747Z,28.28
2019-03-27T04:46:04.753Z,26.97
2019-03-27T04:47:04.773Z,27.78
2019-03-27T04:48:04.723Z,28.08
2019-03-27T04:49:07.656Z,27.28
2019-03-27T04:50:04.708Z,27.68
2019-03-27T04:51:04.684Z,27.68
2019-03-27T04:52:04.697Z,28.48
2019-03-27T04:53:04.783Z,27.38
2019-03-27T04:54:04.662Z,28.49
2019-03-27T04:55:04.647Z,27.38
2019-03-27T04:56:04.624Z,28.39
2019-03-27T04:57:04.606Z,27.67
2019-03-27T04:58:04.596Z,28.38
2019-03-27T04:59:04.641Z,28.49
2019-03-27T05:00:04.572Z,28.08
2019-03-27T05:01:04.568Z,27.38
2019-03-27T05:02:06.586Z,27.78
2019-03-27T05:03:04.557Z,27.98
2019-03-27T05:04:04.570Z,27.58
2019-03-27T05:05:04.578Z,27.77
2019-03-27T05:06:04.512Z,27.57
2019-03-27T05:07:04.492Z,27.89
2019-03-27T05:08:04.486Z,27.47
2019-03-27T05:09:04.500Z,27.47
2019-03-27T05:10:04.465Z,27.68
2019-03-27T05:11:04.568Z,27.47
2019-03-27T05:12:04.458Z,27.48
2019-03-27T05:13:04.556Z,27.67
2019-03-27T05:14:04.423Z,27.77
2019-03-27T05:15:04.489Z,27.97
2019-03-27T05:16:04.413Z,27.87
2019-03-27T05:17:04.456Z,27.77
2019-03-27T05:18:04.392Z,27.87
2019-03-27T05:19:04.394Z,28.17
2019-03-27T05:20:04.358Z,28.08
2019-03-27T05:21:04.343Z,27.57
2019-03-27T05:22:04.346Z,28.08
2019-03-27T05:23:04.453Z,27.47
2019-03-27T05:24:04.333Z,28.48
2019-03-27T05:25:04.331Z,27.77
2019-03-27T05:26:04.329Z,27.87
2019-03-27T05:27:04.302Z,28.48
2019-03-27T05:28:04.309Z,27.67
2019-03-27T05:29:04.302Z,28.47
2019-03-27T05:30:04.256Z,28.28
2019-03-27T05:31:04.253Z,27.25
2019-03-27T05:32:04.250Z,28.06
2019-03-27T05:33:04.268Z,27.25
2019-03-27T05:34:04.214Z,28.47
2019-03-27T05:35:04.262Z,27.25
2019-03-27T05:36:04.179Z,27.96
2019-03-27T05:37:04.172Z,27.96
2019-03-27T05:38:04.234Z,27.76
2019-03-27T05:39:04.156Z,28.36
2019-03-27T05:40:04.121Z,27.75
2019-03-27T05:41:04.139Z,27.76
2019-03-27T05:42:04.137Z,27.44
2019-03-27T05:43:04.129Z,27.34
2019-03-27T05:44:04.092Z,27.34
2019-03-27T05:45:04.090Z,27.75
2019-03-27T05:46:04.081Z,27.44
2019-03-27T05:47:04.099Z,27.64
2019-03-27T05:48:04.068Z,27.64
2019-03-27T05:49:04.022Z,27.44
2019-03-27T05:50:04.141Z,27.63
2019-03-27T05:51:04.033Z,27.53
2019-03-27T05:52:04.045Z,27.63
2019-03-27T05:53:04.053Z,27.44
2019-03-27T05:54:04.079Z,27.43
2019-03-27T05:55:03.959Z,27.43
2019-03-27T05:56:03.969Z,27.33
2019-03-27T05:57:03.952Z,27.33
2019-03-27T05:58:04.016Z,28.23
2019-03-27T05:59:04.036Z,28.42
2019-03-27T06:00:03.923Z,27.82
2019-03-27T06:01:03.911Z,27.82
2019-03-27T06:02:03.936Z,28.22
2019-03-27T06:03:03.889Z,27.72
2019-03-27T06:04:03.869Z,27.92
2019-03-27T06:05:03.924Z,27.62
2019-03-27T06:06:03.846Z,27.11
2019-03-27T06:07:03.842Z,27.11
2019-03-27T06:08:03.858Z,27.72
2019-03-27T06:09:03.800Z,27.01
2019-03-27T06:10:03.806Z,27.22
2019-03-27T06:11:03.833Z,27.10
2019-03-27T06:12:03.799Z,27.50
2019-03-27T06:13:03.763Z,27.30
2019-03-27T06:14:03.739Z,27.00
2019-03-27T06:15:03.763Z,27.10
2019-03-27T06:16:03.774Z,27.61
2019-03-27T06:17:03.760Z,27.61
2019-03-27T06:18:12.936Z,27.70
2019-03-27T06:19:04.731Z,27.49
2019-03-27T06:20:03.677Z,27.49
2019-03-27T06:21:03.690Z,27.49
2019-03-27T06:22:03.659Z,27.29
2019-03-27T06:23:03.724Z,27.59
2019-03-27T06:24:03.673Z,26.99
2019-03-27T06:25:03.679Z,27.19
2019-03-27T06:26:03.644Z,27.39
2019-03-27T06:27:03.602Z,27.29
2019-03-27T06:28:03.593Z,27.29
2019-03-27T06:29:03.751Z,26.89
2019-03-27T06:30:03.604Z,27.39
2019-03-27T06:31:03.654Z,26.79
2019-03-27T06:32:03.576Z,26.47
2019-03-27T06:33:03.626Z,26.47
2019-03-27T06:34:03.530Z,26.37
2019-03-27T06:35:03.548Z,26.47
2019-03-27T06:36:03.495Z,26.67
2019-03-27T06:37:03.538Z,26.37
2019-03-27T06:38:03.497Z,26.76
2019-03-27T06:39:03.462Z,26.86
2019-03-27T06:40:03.482Z,26.35
2019-03-27T06:41:03.537Z,26.15
2019-03-27T06:42:03.452Z,26.66
2019-03-27T06:43:03.472Z,26.66
2019-03-27T06:44:03.411Z,26.66
2019-03-27T06:45:03.408Z,26.35
2019-03-27T06:46:03.424Z,26.35
2019-03-27T06:47:03.483Z,26.95
2019-03-27T06:48:03.387Z,26.95
2019-03-27T06:49:03.388Z,26.65
2019-03-27T06:50:03.366Z,27.05
2019-03-27T06:51:03.360Z,26.85
2019-03-27T06:52:03.348Z,26.45
2019-03-27T06:53:03.378Z,27.15
2019-03-27T06:54:03.314Z,26.54
2019-03-27T06:55:03.317Z,25.94
2019-03-27T06:56:03.308Z,25.93
2019-03-27T06:57:03.272Z,26.13
2019-03-27T06:58:03.293Z,25.93
2019-03-27T06:59:03.279Z,25.64
2019-03-27T07:00:03.238Z,25.53
2019-03-27T07:01:03.227Z,25.33
2019-03-27T07:02:03.246Z,25.53
2019-03-27T07:03:03.256Z,25.82
2019-03-27T07:04:10.444Z,25.62
2019-03-27T07:05:04.243Z,26.12
2019-03-27T07:06:03.197Z,25.82
2019-03-27T07:07:03.186Z,25.82
2019-03-27T07:08:03.168Z,25.72
2019-03-27T07:09:03.157Z,25.62
2019-03-27T07:10:03.167Z,25.62
2019-03-27T07:11:03.187Z,26.12
2019-03-27T07:12:03.117Z,26.02
2019-03-27T07:13:03.105Z,26.12
2019-03-27T07:14:03.077Z,26.32
2019-03-27T07:15:03.068Z,25.82
2019-03-27T07:16:03.168Z,25.72
2019-03-27T07:17:03.141Z,25.72
2019-03-27T07:18:03.060Z,25.81
2019-03-27T07:19:03.027Z,26.10
2019-03-27T07:20:03.031Z,25.60
2019-03-27T07:21:03.021Z,25.20
2019-03-27T07:22:03.040Z,25.20
2019-03-27T07:23:03.021Z,25.00
2019-03-27T07:24:03.008Z,24.70
2019-03-27T07:25:02.976Z,24.69
2019-03-27T07:26:02.951Z,25.20
2019-03-27T07:27:02.957Z,24.80
2019-03-27T07:28:02.982Z,25.19
2019-03-27T07:29:02.978Z,25.59
2019-03-27T07:30:02.952Z,25.70
2019-03-27T07:31:02.912Z,25.19
2019-03-27T07:32:02.930Z,25.19
2019-03-27T07:33:02.865Z,25.19
2019-03-27T07:34:02.881Z,24.88
2019-03-27T07:35:02.899Z,25.68
2019-03-27T07:36:02.873Z,24.98
2019-03-27T07:37:02.852Z,24.98
2019-03-27T07:38:02.824Z,24.68
2019-03-27T07:39:11.051Z,24.98
2019-03-27T07:40:03.845Z,24.88
2019-03-27T07:41:02.799Z,24.98
2019-03-27T07:42:02.769Z,24.96
2019-03-27T07:43:02.770Z,25.07
2019-03-27T07:44:02.771Z,25.07
2019-03-27T07:45:02.748Z,25.16
2019-03-27T07:46:02.770Z,25.27
2019-03-27T07:47:02.738Z,25.05
2019-03-27T07:48:02.712Z,25.35
2019-03-27T07:49:02.711Z,25.47
2019-03-27T07:50:02.703Z,25.15
2019-03-27T07:51:02.707Z,25.05
2019-03-27T07:52:02.707Z,25.35
2019-03-27T07:53:02.663Z,24.96
2019-03-27T07:54:02.656Z,24.85
2019-03-27T07:55:02.635Z,25.15
2019-03-27T07:56:02.621Z,24.96
2019-03-27T07:57:02.605Z,25.35
2019-03-27T07:58:02.647Z,25.56
2019-03-27T07:59:02.575Z,24.96
2019-03-27T08:00:02.574Z,24.85
2019-03-27T08:01:02.595Z,25.15
2019-03-27T08:02:02.558Z,24.76
2019-03-27T08:03:02.624Z,25.15
2019-03-27T08:04:02.679Z,24.96
2019-03-27T08:05:02.517Z,24.85
2019-03-27T08:06:02.597Z,25.34
2019-03-27T08:07:02.514Z,24.65
2019-03-27T08:08:02.479Z,24.65
2019-03-27T08:09:02.486Z,25.14
2019-03-27T08:10:02.494Z,25.24
2019-03-27T08:11:02.481Z,24.24
2019-03-27T08:12:02.456Z,24.83
2019-03-27T08:13:02.460Z,26.03
2019-03-27T08:14:02.483Z,24.83
2019-03-27T08:15:02.425Z,24.82
2019-03-27T08:16:02.428Z,24.41
2019-03-27T08:17:02.386Z,24.51
2019-03-27T08:18:02.394Z,25.10
2019-03-27T08:19:07.939Z,25.60
2019-03-27T08:20:03.367Z,25.10
2019-03-27T08:21:02.338Z,25.18
2019-03-27T08:22:02.383Z,24.79
2019-03-27T08:23:02.313Z,24.57
2019-03-27T08:24:02.334Z,24.47
2019-03-27T08:25:02.314Z,23.97
2019-03-27T08:26:02.291Z,24.66
2019-03-27T08:27:02.325Z,24.26
2019-03-27T08:28:02.311Z,24.35
2019-03-27T08:29:02.264Z,24.15
2019-03-27T08:30:02.258Z,24.44
2019-03-27T08:31:02.256Z,23.94
2019-03-27T08:32:02.227Z,23.34
2019-03-27T08:33:02.212Z,23.53
2019-03-27T08:34:02.249Z,23.53
2019-03-27T08:35:02.258Z,23.42
2019-03-27T08:36:02.224Z,23.61
2019-03-27T08:37:02.311Z,22.72
2019-03-27T08:38:02.178Z,22.71
2019-03-27T08:39:02.157Z,23.11
2019-03-27T08:40:02.175Z,21.90
2019-03-27T08:41:02.157Z,23.00
2019-03-27T08:42:02.134Z,22.69
2019-03-27T08:43:02.115Z,22.69
2019-03-27T08:44:02.114Z,22.49
2019-03-27T08:45:02.104Z,21.30
2019-03-27T08:46:02.122Z,22.29
2019-03-27T08:47:02.085Z,21.68
2019-03-27T08:48:02.082Z,21.48
2019-03-27T08:49:02.084Z,21.68
2019-03-27T08:50:02.070Z,21.08
2019-03-27T08:51:02.043Z,20.76
2019-03-27T08:52:02.078Z,20.76
2019-03-27T08:53:02.001Z,19.25
2019-03-27T08:54:02.037Z,19.64
2019-03-27T08:55:01.991Z,19.62
2019-03-27T08:56:01.998Z,20.21
2019-03-27T08:57:01.981Z,19.51
2019-03-27T08:58:01.998Z,19.70
2019-03-27T08:59:01.969Z,19.40
2019-03-27T09:00:02.866Z,18.30
2019-03-27T09:01:01.950Z,18.19
2019-03-27T09:02:01.938Z,19.27
2019-03-27T09:03:01.909Z,18.29
2019-03-27T09:04:01.953Z,18.29
2019-03-27T09:05:01.888Z,17.49
2019-03-27T09:06:01.904Z,18.27
2019-03-27T09:07:01.868Z,17.38
2019-03-27T09:08:01.888Z,17.47
2019-03-27T09:09:01.879Z,17.28
2019-03-27T09:10:01.896Z,17.57
2019-03-27T09:11:04.512Z,17.86
2019-03-27T09:12:01.825Z,17.27
2019-03-27T09:13:01.818Z,16.97
2019-03-27T09:14:01.803Z,17.27
2019-03-27T09:15:01.783Z,17.56
2019-03-27T09:16:01.847Z,17.36
2019-03-27T09:17:01.766Z,16.47
2019-03-27T09:18:01.797Z,16.87
2019-03-27T09:19:01.806Z,17.07
2019-03-27T09:20:01.768Z,16.47
2019-03-27T09:21:01.771Z,17.16
2019-03-27T09:22:01.823Z,17.36
2019-03-27T09:23:01.848Z,16.67
2019-03-27T09:24:01.730Z,16.87
2019-03-27T09:25:01.764Z,17.16
2019-03-27T09:26:01.736Z,17.46
2019-03-27T09:27:01.679Z,16.97
2019-03-27T09:28:01.698Z,17.26
2019-03-27T09:29:01.728Z,17.07
2019-03-27T09:30:01.665Z,17.07
2019-03-27T09:31:01.713Z,16.47
2019-03-27T09:32:01.641Z,17.46
2019-03-27T09:33:01.701Z,16.97
2019-03-27T09:34:01.635Z,16.67
2019-03-27T09:35:01.666Z,17.26
2019-03-27T09:36:01.720Z,17.16
2019-03-27T09:37:01.575Z,16.47
2019-03-27T09:38:01.576Z,16.57
2019-03-27T09:39:01.541Z,17.26
2019-03-27T09:40:01.641Z,17.36
2019-03-27T09:41:01.545Z,17.26
2019-03-27T09:42:01.539Z,17.46
2019-03-27T09:43:01.546Z,17.26
2019-03-27T09:44:01.517Z,16.87
2019-03-27T09:45:01.511Z,17.26
2019-03-27T09:46:01.529Z,16.97
2019-03-27T09:47:01.492Z,16.77
2019-03-27T09:48:01.511Z,16.87
2019-03-27T09:49:01.480Z,16.87
2019-03-27T09:50:01.440Z,16.97
2019-03-27T09:51:01.459Z,17.16
2019-03-27T09:52:01.461Z,17.26
2019-03-27T09:53:01.411Z,17.47
2019-03-27T09:54:01.391Z,17.56
2019-03-27T09:55:01.381Z,17.26
2019-03-27T09:56:01.369Z,16.97
2019-03-27T09:57:01.395Z,17.56
2019-03-27T09:58:01.404Z,17.47
2019-03-27T09:59:01.344Z,17.27
2019-03-27T10:00:01.348Z,17.86
2019-03-27T10:01:01.325Z,17.07
2019-03-27T10:02:01.308Z,17.57
2019-03-27T10:22:31.738Z,17.08
2019-03-27T10:23:31.615Z,17.57
2019-03-27T10:24:31.638Z,17.57
2019-03-27T10:25:31.721Z,17.19
2019-03-27T10:26:32.016Z,17.58
2019-03-27T10:27:31.598Z,16.99
2019-03-27T10:28:31.638Z,17.09
2019-03-27T10:29:31.569Z,17.68
2019-03-27T10:30:31.569Z,17.09
2019-03-27T10:31:31.564Z,17.58
2019-03-27T10:32:31.531Z,17.49
2019-03-27T10:33:31.501Z,17.19
2019-03-27T10:34:31.597Z,17.09
2019-03-27T10:35:31.512Z,17.29
2019-03-27T10:36:31.572Z,17.29
2019-03-27T10:37:31.472Z,17.58
2019-03-27T10:38:31.451Z,17.58
2019-03-27T10:39:31.448Z,17.58
2019-03-27T10:40:31.550Z,16.99
2019-03-27T10:41:31.431Z,17.49
2019-03-27T10:42:31.441Z,17.30
2019-03-27T10:43:31.431Z,17.19
2019-03-27T10:44:31.422Z,17.39
2019-03-27T10:45:31.393Z,17.40
2019-03-27T10:46:31.410Z,17.59
2019-03-27T10:47:31.390Z,17.40
2019-03-27T10:48:31.355Z,17.69
2019-03-27T10:49:34.229Z,17.69
2019-03-27T10:50:31.340Z,17.59
2019-03-27T10:51:31.439Z,17.30
2019-03-27T10:52:31.384Z,17.30
2019-03-27T10:53:31.318Z,18.10
2019-03-27T10:54:31.295Z,17.21
2019-03-27T10:55:34.396Z,17.40
2019-03-27T10:56:31.288Z,17.21
2019-03-27T10:57:31.256Z,17.11
2019-03-27T10:58:31.384Z,17.02
2019-03-27T10:59:31.279Z,17.41
2019-03-27T11:00:31.239Z,16.92
2019-03-27T11:01:31.231Z,18.40
2019-03-27T11:02:31.208Z,17.41
2019-03-27T11:03:31.198Z,17.21
2019-03-27T11:04:31.232Z,17.22
2019-03-27T11:05:31.191Z,17.61
2019-03-27T11:06:31.247Z,17.61
2019-03-27T11:07:31.156Z,17.52
2019-03-27T11:08:31.215Z,17.42
2019-03-27T11:09:31.134Z,17.82
2019-03-27T11:10:31.178Z,18.32
2019-03-27T11:11:31.116Z,18.32
2019-03-27T11:12:31.127Z,18.03
2019-03-27T11:13:34.254Z,18.33
2019-03-27T11:14:37.796Z,18.44
2019-03-27T11:15:32.150Z,18.33
2019-03-27T11:16:31.075Z,18.44
2019-03-27T11:17:31.051Z,17.93
2019-03-27T11:18:31.056Z,18.23
2019-03-27T11:19:33.534Z,17.93
2019-03-27T11:20:31.761Z,18.24
2019-03-27T11:21:31.128Z,18.44
2019-03-27T11:22:31.013Z,18.54
2019-03-27T11:23:31.016Z,18.54
2019-03-27T11:24:30.999Z,18.84
2019-03-27T11:25:33.065Z,18.94
2019-03-27T11:26:30.965Z,18.94
2019-03-27T11:27:30.990Z,18.55
2019-03-27T11:28:30.937Z,19.05
2019-03-27T11:29:30.951Z,19.25
2019-03-27T11:30:30.911Z,18.86
2019-03-27T11:31:30.972Z,18.96
2019-03-27T11:32:30.892Z,18.86
2019-03-27T11:33:30.969Z,18.86
2019-03-27T11:46:43.450Z,19.46
2019-03-27T11:47:43.373Z,19.67
2019-03-27T11:48:43.453Z,19.67
2019-03-27T11:49:43.382Z,19.37
2019-03-27T11:50:45.220Z,19.87
2019-03-27T11:51:43.325Z,19.48
2019-03-27T11:52:43.363Z,19.77
2019-03-27T11:53:43.316Z,19.08
2019-03-27T11:54:43.284Z,19.97
2019-03-27T11:55:43.265Z,19.37
2019-03-27T11:56:43.286Z,19.37
2019-03-27T11:57:43.275Z,19.37
2019-03-27T11:58:43.288Z,18.88
2019-03-27T11:59:53.400Z,19.67
2019-03-27T12:00:54.302Z,19.48
2019-03-27T12:01:44.275Z,19.77
2019-03-27T12:02:43.226Z,19.27
2019-03-27T12:03:43.183Z,18.57
2019-03-27T12:04:43.215Z,18.98
2019-03-27T12:05:45.680Z,19.07
2019-03-27T12:06:43.158Z,19.07
2019-03-27T12:07:43.138Z,16.67
2019-03-27T12:08:43.172Z,13.40
2019-03-27T12:09:43.202Z,13.51
2019-03-27T12:10:43.200Z,13.70
2019-03-27T12:11:43.118Z,13.31
2019-03-27T12:12:43.221Z,13.32
2019-03-27T12:13:43.128Z,13.02
2019-03-27T12:14:43.101Z,13.13
2019-03-27T12:15:43.075Z,13.14
2019-03-27T12:16:43.122Z,13.54
2019-03-27T12:17:43.047Z,13.25
2019-03-27T12:18:43.061Z,13.06
2019-03-27T12:19:43.051Z,13.36
2019-03-27T12:20:43.020Z,13.17
2019-03-27T12:21:43.036Z,13.57
2019-03-27T12:22:43.058Z,13.37
2019-03-27T12:23:42.981Z,13.57
2019-03-27T12:24:42.964Z,13.28
2019-03-27T12:25:42.996Z,13.89
2019-03-27T12:26:42.957Z,13.68
2019-03-27T12:27:42.936Z,13.28
2019-03-27T12:28:43.002Z,13.78
2019-03-27T12:29:42.943Z,13.59
2019-03-27T12:30:42.952Z,13.59
2019-03-27T12:31:42.919Z,13.79
2019-03-27T12:32:42.932Z,14.59
2019-03-27T12:33:42.899Z,14.20
2019-03-27T12:34:42.898Z,15.00
2019-03-27T12:35:42.931Z,15.70
2019-03-27T12:36:42.881Z,15.80
2019-03-27T12:37:42.847Z,15.60
2019-03-27T12:38:42.836Z,15.70
2019-03-27T12:39:42.843Z,15.80
2019-03-27T12:40:42.878Z,15.20
2019-03-27T12:41:42.804Z,15.70
2019-03-27T12:42:42.783Z,16.41
2019-03-27T12:43:42.805Z,15.80
2019-03-27T12:44:42.846Z,16.91
2019-03-27T12:45:42.820Z,17.10
2019-03-27T12:46:42.847Z,17.30
2019-03-27T12:47:42.762Z,17.99
2019-03-27T12:48:42.805Z,18.08
2019-03-27T12:49:42.759Z,18.29
2019-03-27T12:50:44.410Z,17.99
2019-03-27T12:51:42.699Z,18.38
2019-03-27T12:52:42.739Z,19.27
2019-03-27T12:53:42.689Z,18.97
2019-03-27T12:54:42.684Z,18.77
2019-03-27T12:55:42.683Z,18.27
2019-03-27T12:56:42.622Z,17.17
2019-03-27T12:57:42.618Z,16.97
2019-03-27T12:58:42.685Z,16.97
2019-03-27T12:59:42.639Z,16.67
2019-03-27T13:00:42.622Z,16.97
2019-03-27T13:01:42.613Z,17.58
2019-03-27T13:02:42.742Z,17.68
2019-03-27T13:03:44.464Z,17.28
2019-03-27T13:04:42.641Z,16.98
2019-03-27T13:05:42.556Z,18.08
2019-03-27T13:06:42.536Z,17.79
2019-03-27T13:07:49.968Z,17.89
2019-03-27T13:08:43.531Z,18.69
2019-03-27T13:09:42.525Z,18.88
2019-03-27T13:10:42.539Z,19.09
2019-03-27T13:11:43.829Z,19.38
2019-03-27T13:12:42.493Z,19.29
2019-03-27T13:13:42.505Z,19.29
2019-03-27T13:14:42.816Z,18.49
2019-03-27T13:15:43.228Z,19.18
2019-03-27T13:16:42.864Z,19.18
2019-03-27T13:17:45.355Z,19.08
2019-03-27T13:18:42.520Z,19.48
2019-03-27T13:19:42.647Z,19.57
2019-03-27T13:20:42.582Z,18.58
2019-03-27T13:21:42.805Z,19.07
2019-03-27T13:22:42.504Z,18.98
2019-03-27T13:23:42.564Z,19.37